Time;durP1;ratioP1;P1;durP2;ratioP2;P2;SDS_P1;SDS_P2;PMS_P1;PMS_P2;Temp;Humidity;BMP_temperature;BMP_pressure;BME280_temperature;BME280_humidity;BME280_pressure;Samples;Min_cycle;Max_cycle;Signal;HPM_P1;HPM_P2
2021/04/27 00:00:13;;;;;;;16.80;8.90;;;384.10;1868.80;;;;;;5055209;28;20032;-86
2021/04/27 00:02:40;;;;;;;16.92;10.52;;;359.30;1868.80;;;;;;5054893;28;20027;-89
2021/04/27 00:05:08;;;;;;;21.63;12.48;;;384.00;1868.80;;;;;;5038476;28;20021;-88
2021/04/27 00:07:34;;;;;;;14.65;10.18;;;384.10;1894.40;;;;;;5038389;28;20460;-87
2021/04/27 00:10:00;;;;;;;15.48;8.77;;;384.00;1843.20;;;;;;5039374;28;20028;-89
2021/04/27 00:12:26;;;;;;;12.50;7.72;;;384.10;1792.00;;;;;;5054943;28;20040;-87
2021/04/27 00:14:52;;;;;;;12.85;6.70;;;384.00;1766.40;;;;;;5055505;28;20346;-86
2021/04/27 00:17:18;;;;;;;13.00;7.47;;;359.00;1715.20;;;;;;5055375;28;20053;-88
2021/04/27 00:19:44;;;;;;;12.05;7.97;;;359.30;1715.20;;;;;;5055058;28;20479;-88
2021/04/27 00:22:10;;;;;;;13.32;7.90;;;359.10;1740.80;;;;;;5054593;28;20056;-88
2021/04/27 00:24:36;;;;;;;13.57;8.13;;;359.10;1740.80;;;;;;5055049;28;20345;-87
2021/04/27 00:27:06;;;;;;;11.02;6.60;;;359.10;1766.40;;;;;;5038210;28;20449;-88
2021/04/27 00:29:32;;;;;;;11.35;6.80;;;359.10;1689.60;;;;;;5054361;28;20025;-86
2021/04/27 00:31:59;;;;;;;10.95;7.13;;;359.10;1689.60;;;;;;5038632;28;20031;-87
2021/04/27 00:34:25;;;;;;;16.20;7.60;;;359.10;1664.00;;;;;;5054844;28;20021;-89
2021/04/27 00:36:51;;;;;;;10.43;6.93;;;359.10;1664.00;;;;;;5054327;28;20031;-88
2021/04/27 00:39:17;;;;;;;15.07;7.45;;;359.00;1664.00;;;;;;5055057;28;20032;-86
2021/04/27 00:41:43;;;;;;;13.13;8.70;;;358.80;1792.00;;;;;;5046123;28;20025;-87
2021/04/27 00:44:10;;;;;;;19.60;8.32;;;358.70;1894.40;;;;;;5046773;28;20021;-88
2021/04/27 00:46:36;;;;;;;15.27;8.43;;;358.70;1894.40;;;;;;5055117;28;20043;-88
2021/04/27 00:49:03;;;;;;;15.10;8.32;;;358.70;1920.00;;;;;;5037751;28;20491;-88
2021/04/27 00:51:29;;;;;;;10.90;7.35;;;358.70;1920.00;;;;;;5054317;28;20025;-88
2021/04/27 00:53:55;;;;;;;12.95;7.25;;;358.70;1766.40;;;;;;5053284;28;20070;-87
2021/04/27 00:56:22;;;;;;;15.30;7.70;;;359.00;1766.40;;;;;;5038331;28;20017;-87
2021/04/27 00:58:48;;;;;;;20.55;10.23;;;358.80;1740.80;;;;;;5037000;28;20166;-88
2021/04/27 01:01:14;;;;;;;13.65;7.75;;;358.90;1740.80;;;;;;5037844;28;20067;-86
2021/04/27 01:03:40;;;;;;;15.30;7.50;;;358.80;1740.80;;;;;;5037553;28;20020;-88
2021/04/27 01:06:07;;;;;;;15.02;7.68;;;358.80;1689.60;;;;;;5037482;28;20021;-88
2021/04/27 01:08:43;;;;;;;14.05;8.48;;;358.80;1689.60;;;;;;5037058;28;20476;-88
2021/04/27 01:11:36;;;;;;;12.20;8.75;;;358.60;1817.60;;;;;;5036789;28;20025;-89
2021/04/27 01:14:18;;;;;;;13.93;8.65;;;358.50;1920.00;;;;;;5054811;28;20428;-87
2021/04/27 01:16:49;;;;;;;13.90;7.80;;;333.70;1971.20;;;;;;5037676;28;20154;-89
2021/04/27 01:19:19;;;;;;;12.30;8.90;;;333.60;1971.20;;;;;;5036993;28;20461;-86
2021/04/27 01:21:47;;;;;;;12.23;8.05;;;333.60;1971.20;;;;;;5037719;28;20473;-87
2021/04/27 01:24:29;;;;;;;10.20;7.78;;;333.70;1971.20;;;;;;5037162;28;20017;-87
2021/04/27 01:26:59;;;;;;;15.87;8.83;;;333.70;1971.20;;;;;;5036854;28;20368;-87
2021/04/27 01:29:27;;;;;;;13.63;8.25;;;333.60;1971.20;;;;;;5036997;28;20017;-87
2021/04/27 01:31:56;;;;;;;13.50;8.02;;;333.40;1971.20;;;;;;5037164;28;20028;-88
2021/04/27 01:34:26;;;;;;;12.10;8.15;;;333.60;1971.20;;;;;;5036785;28;20024;-88
2021/04/27 01:36:53;;;;;;;12.35;7.50;;;333.70;1971.20;;;;;;5036979;28;20108;-90
2021/04/27 01:39:22;;;;;;;13.73;9.10;;;358.40;1971.20;;;;;;5036577;28;20032;-87
2021/04/27 01:41:48;;;;;;;13.98;9.52;;;358.40;1945.60;;;;;;5036266;28;20079;-87
2021/04/27 01:44:15;;;;;;;14.75;8.50;;;333.70;1945.60;;;;;;5036636;28;20028;-86
2021/04/27 01:46:42;;;;;;;13.48;8.15;;;358.40;1971.20;;;;;;5036793;28;20017;-89
2021/04/27 01:49:09;;;;;;;13.35;7.90;;;358.50;1920.00;;;;;;5035865;28;20119;-89
2021/04/27 01:51:35;;;;;;;13.02;8.05;;;333.70;1920.00;;;;;;5036243;28;20021;-87
2021/04/27 01:54:02;;;;;;;13.40;8.00;;;333.40;1971.20;;;;;;5035816;28;20021;-88
2021/04/27 01:56:28;;;;;;;12.85;7.50;;;333.30;2073.60;;;;;;5036024;28;20103;-86
2021/04/27 01:58:57;;;;;;;13.25;8.50;;;333.10;2073.60;;;;;;5036867;28;20041;-88
2021/04/27 02:05:36;;;;;;;17.33;8.82;;;333.20;2099.20;;;;;;4953538;29;20557;-87
2021/04/27 02:08:27;;;;;;;21.17;9.38;;;333.40;2304.00;;;;;;4949070;28;20086;-87
2021/04/27 02:11:23;;;;;;;;;;;;;;;;;;;;;
2021/04/27 02:13:44;;;;;;;16.65;8.48;;;333.30;2304.00;;;;;;5051545;28;20029;-86
2021/04/27 02:16:49;;;;;;;13.85;8.38;;;333.40;2329.60;;;;;;5036206;28;20099;-87
2021/04/27 02:19:20;;;;;;;12.13;8.40;;;333.40;2329.60;;;;;;5006710;28;20020;-87
2021/04/27 02:22:20;;;;;;;12.95;8.45;;;333.40;2329.60;;;;;;5016700;28;20036;-85
2021/04/27 02:24:47;;;;;;;12.23;8.52;;;333.40;2329.60;;;;;;5027150;28;20473;-87
2021/04/27 02:27:14;;;;;;;16.27;9.25;;;333.40;2329.60;;;;;;5032771;28;20453;-86
2021/04/27 02:29:44;;;;;;;13.98;9.02;;;333.20;2329.60;;;;;;5033760;28;20411;-89
2021/04/27 02:32:11;;;;;;;17.25;9.43;;;333.20;2329.60;;;;;;5018547;28;20025;-85
2021/04/27 02:34:37;;;;;;;13.50;8.75;;;333.10;2252.80;;;;;;5045129;28;20034;-86
2021/04/27 02:40:26;;;;;;;14.85;8.18;;;333.20;2329.60;;;;;;4994316;28;20072;-87
2021/04/27 02:43:18;;;;;;;11.27;7.65;;;333.30;2329.60;;;;;;5053497;28;20104;-88
2021/04/27 02:45:44;;;;;;;11.98;8.18;;;333.30;2329.60;;;;;;5021836;28;20123;-87
2021/04/27 02:48:14;;;;;;;17.45;9.00;;;333.30;2329.60;;;;;;5036491;28;20025;-88
2021/04/27 02:50:57;;;;;;;14.88;9.13;;;333.30;2329.60;;;;;;5035692;28;20017;-89
2021/04/27 02:53:25;;;;;;;17.77;9.45;;;333.10;2329.60;;;;;;5027482;28;20025;-87
2021/04/27 03:00:17;;;;;;;21.88;9.98;;;333.20;2329.60;;;;;;4927009;29;20083;-87
2021/04/27 03:02:53;;;;;;;13.88;8.27;;;333.10;2329.60;;;;;;4948717;28;20083;-87
2021/04/27 03:05:19;;;;;;;21.27;9.90;;;332.80;2329.60;;;;;;5039429;28;20025;-86
2021/04/27 03:07:46;;;;;;;14.48;8.70;;;308.00;2304.00;;;;;;5039525;28;20021;-89
2021/04/27 03:10:25;;;;;;;15.55;9.25;;;333.00;2329.60;;;;;;5040059;28;20491;-87
2021/04/27 03:16:16;;;;;;;15.10;9.30;;;333.10;2329.60;;;;;;5026222;28;20423;-85
2021/04/27 03:18:44;;;;;;;18.02;9.75;;;333.00;2329.60;;;;;;5056000;28;20079;-87
2021/04/27 03:21:12;;;;;;;17.33;10.43;;;333.00;2329.60;;;;;;5025955;28;20058;-88
2021/04/27 03:23:45;;;;;;;16.35;11.50;;;333.00;2329.60;;;;;;5059069;28;20491;-89
2021/04/27 03:30:42;;;;;;;17.08;11.35;;;332.80;2329.60;;;;;;5077229;28;20474;-86
2021/04/27 03:33:18;;;;;;;18.15;11.68;;;308.00;2304.00;;;;;;4990355;28;20065;-86
2021/04/27 03:36:02;;;;;;;17.95;12.20;;;308.00;2304.00;;;;;;5045010;28;20410;-86
2021/04/27 03:42:04;;;;;;;;;;;;;;;;;;;;;
2021/04/27 03:45:02;;;;;;;19.48;12.85;;;332.80;2329.60;;;;;;5024133;28;20387;-87
2021/04/27 03:47:32;;;;;;;16.45;11.20;;;332.80;2329.60;;;;;;5058633;28;20430;-88
2021/04/27 03:50:01;;;;;;;17.58;11.52;;;332.90;2329.60;;;;;;5059259;28;20112;-86
2021/04/27 03:53:16;;;;;;;16.52;11.65;;;308.10;2304.00;;;;;;5057340;28;20407;-86
2021/04/27 03:55:47;;;;;;;23.80;11.63;;;332.80;2329.60;;;;;;5054360;28;20083;-87
2021/04/27 04:02:47;;;;;;;20.73;10.63;;;307.60;2304.00;;;;;;5085768;28;20023;-87
2021/04/27 04:40:47;;;;;;;16.50;9.82;;;307.70;2304.00;;;;;;4942903;28;20045;-88
2021/04/27 04:47:43;;;;;;;16.55;9.50;;;308.10;2304.00;;;;;;4994151;28;20086;-86
2021/04/27 04:50:40;;;;;;;16.45;8.65;;;308.10;2304.00;;;;;;4968112;28;20030;-86
2021/04/27 04:57:41;;;;;;;16.10;8.57;;;332.80;2329.60;;;;;;4917079;29;20060;-86
2021/04/27 05:01:07;;;;;;;15.55;9.40;;;308.10;2304.00;;;;;;4899323;29;20093;-86
2021/04/27 05:03:57;;;;;;;14.48;9.10;;;332.90;2329.60;;;;;;4913725;29;20123;-87
2021/04/27 05:06:51;;;;;;;18.48;9.50;;;332.90;2304.00;;;;;;4901423;29;20085;-87
2021/04/27 05:10:35;;;;;;;;;;;;;;;;;;;;;
2021/04/27 05:17:30;;;;;;;;;;;;;;;;;;;;;
2021/04/27 05:24:18;;;;;;;24.05;15.43;;;333.10;2329.60;;;;;;4872260;29;20080;-89
2021/04/27 05:33:51;;;;;;;19.67;13.38;;;333.20;2329.60;;;;;;4935493;29;20030;-88
2021/04/27 06:13:57;;;;;;;23.35;13.55;;;333.20;2329.60;;;;;;4860315;29;20054;-88
2021/04/27 06:16:48;;;;;;;21.15;12.82;;;333.40;2329.60;;;;;;4870890;29;20053;-86
2021/04/27 06:26:33;;;;;;;31.08;21.98;;;333.40;2329.60;;;;;;4974173;28;20026;-87
2021/04/27 06:28:42;;;;;;;30.48;20.58;;;333.40;2278.40;;;;;;4956092;28;20094;-87
2021/04/27 06:38:31;;;;;;;18.83;12.13;;;333.70;2150.40;;;;;;4903086;29;20131;-89
2021/04/27 06:41:06;;;;;;;21.42;13.45;;;333.70;2150.40;;;;;;4921438;29;20039;-87
2021/04/27 06:43:35;;;;;;;27.27;18.48;;;358.50;2150.40;;;;;;4949451;28;20066;-89
2021/04/27 06:46:01;;;;;;;21.05;14.35;;;358.50;2099.20;;;;;;4999645;28;20465;-89
2021/04/27 06:48:28;;;;;;;23.25;15.32;;;358.50;2073.60;;;;;;5015778;28;20038;-87
2021/04/27 06:50:55;;;;;;;25.92;13.88;;;358.50;2099.20;;;;;;5001872;28;20034;-87
2021/04/27 06:53:22;;;;;;;23.05;14.32;;;359.00;2073.60;;;;;;4980313;28;20109;-87
2021/04/27 06:55:49;;;;;;;23.33;14.13;;;333.70;2099.20;;;;;;4995644;28;20018;-87
2021/04/27 06:58:16;;;;;;;26.65;14.15;;;358.50;2073.60;;;;;;4996468;28;20030;-89
2021/04/27 07:00:43;;;;;;;23.73;13.55;;;358.50;2048.00;;;;;;4996294;28;20084;-87
2021/04/27 07:03:09;;;;;;;21.20;13.38;;;358.50;2073.60;;;;;;4995883;28;20066;-89
2021/04/27 07:05:36;;;;;;;19.95;13.55;;;333.70;2073.60;;;;;;5003982;28;20099;-87
2021/04/27 07:08:03;;;;;;;23.55;14.50;;;358.50;2099.20;;;;;;5036491;28;20018;-87
2021/04/27 07:10:29;;;;;;;25.23;15.15;;;358.70;2099.20;;;;;;5036354;28;20029;-90
2021/04/27 07:12:55;;;;;;;24.88;14.98;;;358.80;2073.60;;;;;;5036441;28;20052;-88
2021/04/27 07:15:21;;;;;;;22.50;13.73;;;358.90;2073.60;;;;;;5035896;28;20358;-89
2021/04/27 07:17:48;;;;;;;20.00;14.38;;;359.10;2048.00;;;;;;5036143;28;20028;-86
2021/04/27 07:20:15;;;;;;;28.40;15.73;;;358.80;1996.80;;;;;;5042519;28;20083;-86
2021/04/27 07:22:42;;;;;;;42.63;17.95;;;384.00;2048.00;;;;;;5046794;28;20043;-87
2021/04/27 07:25:09;;;;;;;21.70;15.45;;;359.30;1971.20;;;;;;5041795;28;20021;-89
2021/04/27 07:27:35;;;;;;;23.55;15.07;;;384.00;1971.20;;;;;;5039072;28;20033;-87
2021/04/27 07:30:03;;;;;;;31.48;16.30;;;359.20;1945.60;;;;;;5039410;28;20021;-88
2021/04/27 07:32:29;;;;;;;25.42;16.02;;;359.20;1971.20;;;;;;5038650;28;20056;-87
2021/04/27 07:34:55;;;;;;;24.83;17.27;;;359.30;1996.80;;;;;;5034376;28;20045;-87
2021/04/27 07:37:21;;;;;;;26.92;17.10;;;384.10;1971.20;;;;;;5038464;28;20070;-86
2021/04/27 07:39:47;;;;;;;19.73;14.75;;;384.20;1945.60;;;;;;5037739;28;20094;-84
2021/04/27 07:42:13;;;;;;;27.77;15.43;;;384.20;1971.20;;;;;;5038354;28;20098;-85
2021/04/27 07:44:39;;;;;;;23.65;15.40;;;384.30;1971.20;;;;;;5038731;28;20040;-87
2021/04/27 07:47:05;;;;;;;23.52;15.68;;;384.40;1971.20;;;;;;5037916;28;20444;-84
2021/04/27 07:49:31;;;;;;;22.23;13.32;;;384.60;1996.80;;;;;;5038588;28;20021;-84
2021/04/27 07:51:58;;;;;;;25.02;13.18;;;384.70;1894.40;;;;;;5038461;28;20032;-85
2021/04/27 07:54:24;;;;;;;22.70;13.07;;;384.80;1894.40;;;;;;5038678;28;20075;-81
2021/04/27 07:56:50;;;;;;;26.90;14.80;;;384.80;1920.00;;;;;;5038464;28;20028;-85
2021/04/27 07:59:16;;;;;;;25.02;17.50;;;384.70;1920.00;;;;;;5038349;28;20078;-82
2021/04/27 08:01:42;;;;;;;31.85;15.15;;;384.70;1920.00;;;;;;5038382;28;20035;-85
2021/04/27 08:04:08;;;;;;;35.63;15.63;;;384.90;1945.60;;;;;;5038201;28;20049;-82
2021/04/27 08:06:35;;;;;;;31.50;13.82;;;384.90;1920.00;;;;;;5038362;28;20441;-82
2021/04/27 08:09:03;;;;;;;23.95;12.50;;;409.60;1971.20;;;;;;5054675;28;20023;-82
2021/04/27 08:11:29;;;;;;;18.77;10.95;;;409.60;1971.20;;;;;;5056380;28;20051;-84
2021/04/27 08:13:55;;;;;;;38.47;11.75;;;409.60;1996.80;;;;;;5037378;28;20191;-83
2021/04/27 08:16:21;;;;;;;20.00;10.50;;;409.70;1971.20;;;;;;5036544;28;20028;-82
2021/04/27 08:18:47;;;;;;;20.05;12.98;;;409.70;1971.20;;;;;;5036738;28;20448;-82
2021/04/27 08:21:13;;;;;;;20.60;13.63;;;409.80;2048.00;;;;;;5037404;28;20029;-81
2021/04/27 08:23:40;;;;;;;59.08;14.77;;;409.90;2048.00;;;;;;5033786;28;20084;-83
2021/04/27 08:26:08;;;;;;;21.08;11.82;;;409.90;2048.00;;;;;;5037357;28;20017;-82
2021/04/27 08:28:34;;;;;;;23.27;11.52;;;409.60;2073.60;;;;;;5037515;28;20366;-82
2021/04/27 08:31:00;;;;;;;72.85;18.15;;;409.80;2099.20;;;;;;5037261;28;20021;-84
2021/04/27 08:33:27;;;;;;;89.47;21.05;;;410.00;2124.80;;;;;;5037748;28;20514;-83
2021/04/27 08:35:53;;;;;;;34.80;14.13;;;410.00;2099.20;;;;;;5038853;28;20448;-86
2021/04/27 08:38:20;;;;;;;25.92;11.30;;;410.20;2048.00;;;;;;5037836;28;20025;-86
2021/04/27 08:40:46;;;;;;;21.63;11.50;;;410.20;1996.80;;;;;;5052517;28;20534;-87
2021/04/27 08:43:15;;;;;;;21.60;13.63;;;410.30;2022.40;;;;;;5047489;28;20025;-85
2021/04/27 08:45:43;;;;;;;29.10;12.00;;;410.30;2048.00;;;;;;5034736;28;20052;-84
2021/04/27 08:48:11;;;;;;;14.77;9.48;;;410.50;1996.80;;;;;;5054869;28;20037;-84
2021/04/27 08:50:38;;;;;;;15.98;10.75;;;410.50;1945.60;;;;;;5051713;28;20112;-81
2021/04/27 08:53:04;;;;;;;18.60;12.15;;;435.20;1945.60;;;;;;5035500;28;20028;-81
2021/04/27 08:55:31;;;;;;;20.98;10.43;;;435.20;1971.20;;;;;;5035446;28;20025;-82
2021/04/27 08:57:56;;;;;;;15.07;9.48;;;435.20;1945.60;;;;;;5036753;28;20071;-85
2021/04/27 09:00:23;;;;;;;19.63;13.30;;;435.30;1945.60;;;;;;5036569;28;20021;-83
2021/04/27 09:03:01;;;;;;;18.08;11.90;;;410.10;1971.20;;;;;;5036811;28;20025;-85
2021/04/27 09:05:30;;;;;;;19.08;11.68;;;435.50;1945.60;;;;;;5035181;28;20021;-84
2021/04/27 09:07:56;;;;;;;21.40;13.63;;;435.60;1920.00;;;;;;5033579;28;20025;-86
2021/04/27 09:10:32;;;;;;;19.77;11.70;;;435.80;1945.60;;;;;;5036616;28;20048;-84
2021/04/27 09:13:15;;;;;;;19.60;9.52;;;435.90;1920.00;;;;;;5036644;28;20047;-84
2021/04/27 09:15:50;;;;;;;12.80;9.25;;;436.10;1894.40;;;;;;5036670;28;20021;-84
2021/04/27 09:18:36;;;;;;;13.57;8.32;;;436.10;1920.00;;;;;;5036947;28;20066;-83
2021/04/27 09:21:05;;;;;;;16.77;9.32;;;460.80;1945.60;;;;;;5054070;28;20025;-84
2021/04/27 09:23:32;;;;;;;14.65;8.65;;;460.80;1971.20;;;;;;5053682;28;20033;-84
2021/04/27 09:26:16;;;;;;;14.07;9.27;;;460.80;1920.00;;;;;;5037418;28;20074;-85
2021/04/27 09:28:50;;;;;;;13.45;7.68;;;461.10;1945.60;;;;;;5053210;28;20068;-84
2021/04/27 09:31:29;;;;;;;23.23;9.73;;;461.40;1894.40;;;;;;5054963;28;20021;-82
2021/04/27 09:34:15;;;;;;;25.65;8.77;;;461.50;1894.40;;;;;;5052008;28;20035;-81
2021/04/27 09:36:41;;;;;;;17.33;7.93;;;486.40;1868.80;;;;;;5033830;28;20070;-81
2021/04/27 09:39:07;;;;;;;15.48;9.13;;;486.80;1843.20;;;;;;5035955;28;20104;-78
2021/04/27 09:41:33;;;;;;;15.68;9.68;;;487.20;1792.00;;;;;;5047952;28;20023;-82
2021/04/27 09:43:59;;;;;;;15.75;9.88;;;512.00;1766.40;;;;;;5048114;28;20037;-82
2021/04/27 09:46:41;;;;;;;21.30;8.38;;;512.10;1766.40;;;;;;5026275;28;20032;-84
2021/04/27 09:49:08;;;;;;;21.17;12.60;;;512.80;1689.60;;;;;;5038605;28;20105;-82
2021/04/27 09:51:35;;;;;;;39.50;11.02;;;537.80;1638.40;;;;;;5035811;28;20030;-80
2021/04/27 09:54:05;;;;;;;17.65;8.23;;;537.80;1612.80;;;;;;5033581;28;20078;-82
2021/04/27 09:56:38;;;;;;;22.77;8.65;;;512.90;1587.20;;;;;;5035126;28;20061;-80
2021/04/27 09:59:14;;;;;;;39.90;12.73;;;512.90;1612.80;;;;;;5035396;28;20021;-80
2021/04/27 10:01:41;;;;;;;15.90;7.70;;;512.80;1612.80;;;;;;5036318;28;20048;-79
2021/04/27 10:04:07;;;;;;;18.30;7.38;;;537.60;1638.40;;;;;;5035659;28;20060;-81
2021/04/27 10:06:40;;;;;;;16.45;9.20;;;538.00;1612.80;;;;;;5036007;28;20017;-79
2021/04/27 10:09:07;;;;;;;113.78;19.30;;;538.20;1561.60;;;;;;5035842;28;20021;-80
2021/04/27 10:11:33;;;;;;;30.38;14.93;;;538.30;1561.60;;;;;;5035866;28;20017;-82
2021/04/27 10:13:59;;;;;;;16.13;7.78;;;538.00;1561.60;;;;;;5036110;28;20025;-80
2021/04/27 10:16:25;;;;;;;17.60;8.20;;;537.80;1561.60;;;;;;5035788;28;20028;-82
2021/04/27 10:18:53;;;;;;;10.98;6.70;;;537.60;1612.80;;;;;;5036150;28;20021;-81
2021/04/27 10:21:19;;;;;;;13.45;7.05;;;512.90;1612.80;;;;;;5053653;28;20021;-80
2021/04/27 10:23:52;;;;;;;13.38;6.15;;;512.90;1587.20;;;;;;5034281;28;20040;-79
2021/04/27 10:26:26;;;;;;;12.65;8.05;;;537.70;1638.40;;;;;;5035541;28;20104;-81
2021/04/27 10:29:08;;;;;;;23.45;9.10;;;537.60;1612.80;;;;;;5035425;28;20546;-82
2021/04/27 10:31:41;;;;;;;13.65;6.05;;;537.70;1561.60;;;;;;5035609;28;20017;-81
2021/04/27 10:34:15;;;;;;;14.80;7.60;;;537.70;1561.60;;;;;;5035068;28;20025;-82
2021/04/27 10:36:50;;;;;;;18.70;7.60;;;537.70;1561.60;;;;;;5035515;28;20104;-80
2021/04/27 10:39:36;;;;;;;14.60;8.77;;;538.00;1561.60;;;;;;5053289;28;20075;-82
2021/04/27 10:42:16;;;;;;;12.77;7.70;;;538.30;1536.00;;;;;;5035945;28;20098;-82
2021/04/27 10:45:04;;;;;;;16.42;8.55;;;538.50;1484.80;;;;;;5037341;28;20025;-82
2021/04/27 10:47:40;;;;;;;16.83;7.80;;;538.50;1484.80;;;;;;5035304;28;20024;-83
2021/04/27 10:50:07;;;;;;;11.90;6.50;;;538.10;1510.40;;;;;;5053442;28;20025;-82
2021/04/27 10:52:39;;;;;;;10.60;7.25;;;538.00;1510.40;;;;;;5034223;28;20350;-81
2021/04/27 10:55:33;;;;;;;14.63;7.68;;;538.00;1510.40;;;;;;5053472;28;20013;-79
2021/04/27 10:58:02;;;;;;;11.57;6.82;;;538.30;1510.40;;;;;;5034752;28;20468;-79
2021/04/27 11:00:40;;;;;;;13.30;8.65;;;538.00;1510.40;;;;;;5035355;28;20372;-81
2021/04/27 11:03:28;;;;;;;11.43;6.95;;;538.30;1484.80;;;;;;5035962;28;20369;-83
2021/04/27 11:06:01;;;;;;;14.00;5.95;;;538.10;1484.80;;;;;;5053573;28;20115;-79
2021/04/27 11:08:48;;;;;;;17.33;6.72;;;537.90;1510.40;;;;;;5035734;28;20021;-83
2021/04/27 11:11:21;;;;;;;9.52;6.05;;;537.90;1536.00;;;;;;5035660;28;20128;-84
2021/04/27 11:13:48;;;;;;;10.07;5.88;;;537.80;1536.00;;;;;;5033305;28;20023;-81
2021/04/27 11:16:25;;;;;;;22.77;6.88;;;538.30;1484.80;;;;;;5032824;28;20025;-82
2021/04/27 11:18:51;;;;;;;14.43;6.88;;;538.30;1484.80;;;;;;5031245;28;20449;-80
2021/04/27 11:21:17;;;;;;;14.18;6.13;;;538.30;1484.80;;;;;;5035019;28;20043;-79
2021/04/27 11:23:56;;;;;;;14.20;6.30;;;563.40;1484.80;;;;;;5038161;28;20031;-80
2021/04/27 11:26:34;;;;;;;19.33;8.50;;;563.70;1459.20;;;;;;5038612;28;20487;-79
2021/04/27 11:29:15;;;;;;;10.25;6.00;;;588.90;1382.40;;;;;;5055014;28;20055;-79
2021/04/27 11:32:15;;;;;;;14.95;8.65;;;588.80;1408.00;;;;;;5056917;28;20017;-80
2021/04/27 11:34:55;;;;;;;14.25;6.93;;;589.00;1408.00;;;;;;5055247;28;20165;-80
2021/04/27 11:37:28;;;;;;;9.73;6.72;;;589.10;1356.80;;;;;;5055622;28;20345;-82
2021/04/27 11:39:55;;;;;;;17.02;7.55;;;589.40;1356.80;;;;;;5055172;28;20021;-79
2021/04/27 11:42:27;;;;;;;12.07;7.20;;;589.40;1356.80;;;;;;5054847;28;20479;-79
2021/04/27 11:45:00;;;;;;;11.17;6.40;;;589.20;1356.80;;;;;;5055301;28;20025;-80
2021/04/27 11:47:33;;;;;;;12.75;6.57;;;589.30;1356.80;;;;;;5056404;28;20025;-79
2021/04/27 11:50:11;;;;;;;11.43;8.52;;;589.30;1356.80;;;;;;5050384;28;20044;-78
2021/04/27 11:52:50;;;;;;;14.88;8.68;;;589.20;1331.20;;;;;;5038130;28;20116;-78
2021/04/27 11:55:26;;;;;;;14.10;7.22;;;589.70;1331.20;;;;;;5036919;28;20021;-81
2021/04/27 11:58:09;;;;;;;11.32;5.57;;;614.70;1280.00;;;;;;5038418;28;20116;-80
2021/04/27 12:00:50;;;;;;;8.23;4.93;;;614.50;1280.00;;;;;;5039301;28;20025;-81
2021/04/27 12:03:31;;;;;;;9.13;5.45;;;614.50;1280.00;;;;;;5037999;28;20031;-80
2021/04/27 12:06:06;;;;;;;18.65;6.82;;;614.40;1280.00;;;;;;5038017;28;20036;-81
2021/04/27 12:08:35;;;;;;;9.38;4.03;;;614.40;1280.00;;;;;;5038833;28;20025;-80
2021/04/27 12:11:14;;;;;;;10.65;5.03;;;614.80;1203.20;;;;;;5037932;28;20028;-80
2021/04/27 12:13:55;;;;;;;10.02;4.20;;;615.00;1152.00;;;;;;5055771;28;20458;-81
2021/04/27 12:16:25;;;;;;;10.20;3.40;;;614.90;1075.20;;;;;;5037457;28;20016;-80
2021/04/27 12:19:09;;;;;;;7.22;3.63;;;589.70;1075.20;;;;;;5037941;28;20027;-80
2021/04/27 12:21:45;;;;;;;8.23;4.03;;;589.30;1100.80;;;;;;5038204;28;20546;-80
2021/04/27 12:24:11;;;;;;;12.57;5.60;;;589.00;1126.40;;;;;;5037616;28;20056;-80
2021/04/27 12:26:39;;;;;;;9.43;4.68;;;588.90;1126.40;;;;;;5037771;28;20129;-82
2021/04/27 12:29:06;;;;;;;9.85;4.70;;;564.00;1152.00;;;;;;5037281;28;20037;-81
2021/04/27 12:31:33;;;;;;;12.18;3.30;;;563.80;1152.00;;;;;;5055245;28;20053;-81
2021/04/27 12:34:05;;;;;;;9.27;4.53;;;563.50;1177.60;;;;;;5037384;28;20124;-81
2021/04/27 12:36:51;;;;;;;;;;;563.40;1177.60;;;;;;5039073;28;20025;-80
2021/04/27 12:39:20;;;;;;;13.35;3.80;;;563.40;1177.60;;;;;;5054605;28;19988;-80
2021/04/27 12:41:46;;;;;;;16.77;6.88;;;563.40;1203.20;;;;;;5055171;28;20021;-80
2021/04/27 12:44:29;;;;;;;13.55;5.30;;;563.50;1203.20;;;;;;5037158;28;20127;-79
2021/04/27 12:47:01;;;;;;;13.52;5.78;;;563.50;1203.20;;;;;;5037396;28;20017;-82
2021/04/27 12:49:29;;;;;;;14.13;7.85;;;563.50;1177.60;;;;;;5037353;28;20498;-80
2021/04/27 12:52:13;;;;;;;9.30;3.55;;;563.50;1203.20;;;;;;5036807;28;20151;-80
2021/04/27 12:54:40;;;;;;;12.20;5.20;;;563.40;1203.20;;;;;;5037541;28;20452;-81
2021/04/27 12:57:17;;;;;;;9.85;6.65;;;563.50;1203.20;;;;;;5037041;28;20032;-81
2021/04/27 12:59:45;;;;;;;9.63;5.32;;;563.50;1203.20;;;;;;5036859;28;20476;-81
2021/04/27 13:02:16;;;;;;;12.52;5.15;;;563.60;1203.20;;;;;;5036861;28;20025;-80
2021/04/27 13:05:13;;;;;;;14.48;6.43;;;563.60;1177.60;;;;;;5037022;28;20020;-81
2021/04/27 13:07:41;;;;;;;11.25;4.95;;;563.60;1203.20;;;;;;5033855;28;20464;-80
2021/04/27 13:10:30;;;;;;;12.93;5.13;;;563.60;1203.20;;;;;;5036958;28;20112;-81
2021/04/27 13:12:56;;;;;;;14.13;6.38;;;563.60;1203.20;;;;;;5036537;28;20025;-81
2021/04/27 13:15:24;;;;;;;13.18;5.30;;;563.80;1228.80;;;;;;5036764;28;20032;-81
2021/04/27 13:17:59;;;;;;;9.48;4.32;;;564.10;1152.00;;;;;;5054700;28;20043;-84
2021/04/27 13:20:27;;;;;;;12.13;4.57;;;564.00;1152.00;;;;;;5036509;28;20071;-82
2021/04/27 13:22:58;;;;;;;9.20;4.28;;;563.90;1152.00;;;;;;5036643;28;20051;-81
2021/04/27 13:25:25;;;;;;;9.65;4.70;;;563.80;1152.00;;;;;;5036675;28;20040;-79
2021/04/27 13:27:55;;;;;;;16.05;6.47;;;563.60;1152.00;;;;;;5053937;28;20041;-81
2021/04/27 13:30:26;;;;;;;14.27;4.20;;;563.60;1152.00;;;;;;5036570;28;20052;-80
2021/04/27 13:33:11;;;;;;;7.32;3.53;;;563.50;1152.00;;;;;;5036546;28;20021;-81
2021/04/27 13:35:48;;;;;;;11.27;3.92;;;563.20;1152.00;;;;;;5037086;28;20423;-80
2021/04/27 13:38:16;;;;;;;9.48;5.10;;;563.20;1177.60;;;;;;5036423;28;20032;-78
2021/04/27 13:40:43;;;;;;;10.05;4.60;;;538.50;1126.40;;;;;;5054291;28;20358;-83
2021/04/27 13:43:18;;;;;;;11.05;3.80;;;538.50;1152.00;;;;;;5036211;28;20479;-81
2021/04/27 13:45:45;;;;;;;10.60;4.63;;;538.50;1152.00;;;;;;5036350;28;20448;-79
2021/04/27 13:48:12;;;;;;;12.50;6.18;;;538.40;1152.00;;;;;;5036378;28;20584;-79
2021/04/27 13:50:41;;;;;;;11.32;5.10;;;538.40;1152.00;;;;;;5054046;28;20063;-78
2021/04/27 13:53:08;;;;;;;23.63;13.50;;;538.50;1152.00;;;;;;5036126;28;20029;-78
2021/04/27 13:55:35;;;;;;;17.15;9.90;;;538.50;1152.00;;;;;;5035677;28;20482;-79
2021/04/27 13:58:02;;;;;;;12.25;5.05;;;538.50;1126.40;;;;;;5035894;28;20025;-77
2021/04/27 14:00:28;;;;;;;23.70;11.52;;;538.40;1126.40;;;;;;5036065;28;20083;-76
2021/04/27 14:02:55;;;;;;;22.08;10.85;;;538.50;1126.40;;;;;;5034287;28;20045;-76
2021/04/27 14:05:22;;;;;;;30.65;15.18;;;538.50;1126.40;;;;;;5035676;28;20023;-75
2021/04/27 14:07:48;;;;;;;10.35;5.28;;;563.20;1152.00;;;;;;5051872;28;20025;-76
2021/04/27 14:10:16;;;;;;;10.10;3.72;;;563.20;1152.00;;;;;;5036051;28;20024;-77
2021/04/27 14:12:44;;;;;;;10.55;4.43;;;563.20;1126.40;;;;;;5034949;28;20124;-76
2021/04/27 14:15:11;;;;;;;19.10;7.10;;;563.20;1126.40;;;;;;5035353;28;20445;-76
2021/04/27 14:17:41;;;;;;;17.60;8.57;;;538.50;1126.40;;;;;;5034607;28;20453;-76
2021/04/27 14:20:09;;;;;;;12.38;5.28;;;538.50;1126.40;;;;;;5033247;28;20035;-76
2021/04/27 14:22:36;;;;;;;14.55;5.50;;;538.50;1126.40;;;;;;5052893;28;20025;-77
2021/04/27 14:25:02;;;;;;;11.52;4.75;;;538.50;1126.40;;;;;;5051515;28;20028;-76
2021/04/27 14:27:28;;;;;;;12.45;3.53;;;563.20;1177.60;;;;;;5050727;28;20383;-75
2021/04/27 14:29:54;;;;;;;8.18;4.20;;;563.30;1152.00;;;;;;5034820;28;20108;-76
2021/04/27 14:32:20;;;;;;;11.65;4.05;;;563.60;1152.00;;;;;;5053223;28;20028;-74
2021/04/27 14:34:46;;;;;;;12.07;4.25;;;563.60;1152.00;;;;;;5034971;28;20032;-77
2021/04/27 14:37:12;;;;;;;15.48;5.90;;;563.40;1152.00;;;;;;5053752;28;20382;-76
2021/04/27 14:39:38;;;;;;;13.52;7.78;;;563.40;1152.00;;;;;;5035343;28;20021;-77
2021/04/27 14:42:05;;;;;;;12.13;5.75;;;563.40;1152.00;;;;;;5053586;28;20100;-76
2021/04/27 14:44:32;;;;;;;13.85;4.40;;;563.40;1152.00;;;;;;5053224;28;20032;-77
2021/04/27 14:46:58;;;;;;;10.48;5.82;;;563.40;1152.00;;;;;;5035370;28;20021;-77
2021/04/27 14:49:24;;;;;;;9.55;4.65;;;563.40;1152.00;;;;;;5036201;28;20020;-79
2021/04/27 14:51:50;;;;;;;10.13;4.65;;;563.50;1152.00;;;;;;5034319;28;20563;-80